createdAt,value
2023-05-19T03:14:32.672Z,100786.41
2023-05-19T03:17:36.389Z,100790.81
2023-05-19T03:20:41.503Z,100787.41
2023-05-19T03:23:44.371Z,100795.31
2023-05-19T03:26:46.526Z,100797.03
2023-05-19T03:29:48.972Z,100799.47
2023-05-19T03:32:52.082Z,100799.06
2023-05-19T03:35:55.928Z,100798.50
2023-05-19T03:38:59.169Z,100797.72
2023-05-19T03:42:01.693Z,100796.16
2023-05-19T03:45:04.324Z,100791.59
2023-05-19T03:48:07.204Z,100792.91
2023-05-19T03:51:10.003Z,100797.41
2023-05-19T03:54:12.517Z,100794.69
2023-05-19T03:57:15.723Z,100792.00
2023-05-19T04:00:18.955Z,100796.31
2023-05-19T04:03:21.702Z,100790.47
2023-05-19T04:06:24.043Z,100793.59
2023-05-19T04:09:26.591Z,100798.00
2023-05-19T04:12:30.307Z,100794.53
2023-05-19T04:15:32.901Z,100797.19
2023-05-19T04:18:35.132Z,100801.56
2023-05-19T04:21:37.627Z,100799.78
2023-05-19T04:24:40.420Z,100800.56
2023-05-19T04:27:43.176Z,100807.72
2023-05-19T04:30:46.776Z,100809.03
2023-05-19T04:33:49.750Z,100811.06
2023-05-19T04:36:53.489Z,100816.56
2023-05-19T04:39:56.316Z,100809.59
2023-05-19T04:42:59.062Z,100813.09
2023-05-19T04:46:02.116Z,100819.38
2023-05-19T04:49:04.383Z,100823.37
2023-05-19T04:52:11.156Z,100827.41
2023-05-19T04:55:15.900Z,100828.09
2023-05-19T04:58:19.643Z,100828.69
2023-05-19T05:01:26.266Z,100828.69
2023-05-19T05:04:29.199Z,100819.75
2023-05-19T05:07:32.470Z,100820.41
2023-05-19T05:10:36.083Z,100825.28
2023-05-19T05:13:38.580Z,100824.34
2023-05-19T05:16:41.775Z,100829.13
2023-05-19T05:19:45.098Z,100828.31
2023-05-19T05:22:47.944Z,100828.84
2023-05-19T05:25:50.698Z,100832.63
2023-05-19T05:28:54.105Z,100830.97
2023-05-19T05:31:56.730Z,100829.56
2023-05-19T05:34:59.870Z,100833.19
2023-05-19T05:38:02.785Z,100831.31
2023-05-19T05:41:05.506Z,100836.75
2023-05-19T05:44:07.934Z,100824.16
2023-05-19T05:47:11.982Z,100826.44
2023-05-19T05:50:14.807Z,100831.62
2023-05-19T05:53:19.672Z,100828.94
2023-05-19T05:56:23.135Z,100837.03
2023-05-19T05:59:26.576Z,100833.28
2023-05-19T06:02:30.017Z,100834.19
2023-05-19T06:05:33.277Z,100847.03
2023-05-19T06:08:35.796Z,100836.44
2023-05-19T06:11:41.611Z,100841.06
2023-05-19T06:14:46.423Z,100846.69
2023-05-19T06:17:49.504Z,100847.41
2023-05-19T06:20:51.733Z,100845.41
2023-05-19T06:23:54.699Z,100843.16
2023-05-19T06:26:56.942Z,100838.34
2023-05-19T06:29:59.730Z,100852.19
2023-05-19T06:33:03.545Z,100853.47
2023-05-19T06:36:06.407Z,100854.56
2023-05-19T06:39:09.304Z,100868.63
2023-05-19T06:42:12.196Z,100864.81
2023-05-19T06:45:16.911Z,100870.91
2023-05-19T06:48:19.851Z,100873.94
2023-05-19T06:51:23.404Z,100878.53
2023-05-19T06:54:26.756Z,100875.06
2023-05-19T06:57:29.313Z,100886.72
2023-05-19T07:00:32.429Z,100883.75
2023-05-19T07:03:36.318Z,100871.88
2023-05-19T07:06:39.113Z,100872.38
2023-05-19T07:09:41.604Z,100876.22
2023-05-19T07:12:44.193Z,100874.91
2023-05-19T07:15:48.976Z,100869.75
2023-05-19T07:18:52.049Z,100871.81
2023-05-19T07:21:55.003Z,100877.75
2023-05-19T07:24:57.551Z,100864.25
2023-05-19T07:27:59.942Z,100862.97
2023-05-19T07:31:02.536Z,100860.16
2023-05-19T07:34:04.999Z,100853.41
2023-05-19T07:37:07.670Z,100852.81
2023-05-19T07:40:10.175Z,100848.62
2023-05-19T07:43:12.874Z,100855.09
2023-05-19T07:46:15.285Z,100849.41
2023-05-19T07:49:17.843Z,100844.94
2023-05-19T07:52:20.119Z,100840.50
2023-05-19T07:55:23.986Z,100847.34
2023-05-19T07:58:26.491Z,100838.94
2023-05-19T08:01:30.551Z,100845.78
2023-05-19T08:04:33.591Z,100846.25
2023-05-19T08:07:36.173Z,100839.25
2023-05-19T08:10:38.691Z,100841.50
2023-05-19T08:13:41.063Z,100836.31
2023-05-19T08:16:45.023Z,100831.50
2023-05-19T08:19:47.229Z,100828.34
2023-05-19T08:22:49.967Z,100833.44
2023-05-19T08:25:52.401Z,100828.53
2023-05-19T08:28:54.902Z,100823.44
2023-05-19T08:31:58.462Z,100830.75
2023-05-19T08:35:01.069Z,100836.00
2023-05-19T08:38:03.317Z,100832.19
2023-05-19T08:41:06.217Z,100823.13
2023-05-19T08:44:08.512Z,100830.72
2023-05-19T08:47:14.500Z,100835.19
2023-05-19T08:50:21.317Z,100828.41
2023-05-19T08:53:33.691Z,100835.94
2023-05-19T08:56:37.963Z,100822.31
2023-05-19T08:59:41.512Z,100829.47
2023-05-19T09:02:55.072Z,100826.94
2023-05-19T09:06:08.637Z,100820.88
2023-05-19T09:09:11.557Z,100817.69
2023-05-19T09:12:14.404Z,100821.50
2023-05-19T09:15:20.982Z,100820.13
2023-05-19T09:18:26.065Z,100819.50
2023-05-19T09:21:31.073Z,100814.97
2023-05-19T09:24:34.135Z,100820.53
2023-05-19T09:27:36.314Z,100816.87
2023-05-19T09:30:39.521Z,100821.47
2023-05-19T09:33:45.570Z,100820.00
2023-05-19T09:36:53.513Z,100815.28
2023-05-19T09:39:56.543Z,100814.03
2023-05-19T09:42:58.975Z,100817.44
2023-05-19T09:46:03.931Z,100816.81
2023-05-19T09:49:09.841Z,100807.16
2023-05-19T09:52:16.297Z,100807.16
2023-05-19T09:55:23.035Z,100803.22
2023-05-19T09:58:26.458Z,100805.09
2023-05-19T10:01:32.907Z,100796.03
2023-05-19T10:04:36.278Z,100784.06
2023-05-19T10:07:40.541Z,100766.97
2023-05-19T10:10:43.384Z,100763.75
2023-05-19T10:13:47.161Z,100752.03
2023-05-19T10:16:52.588Z,100744.75
2023-05-19T10:19:55.102Z,100748.00
2023-05-19T10:22:57.580Z,100750.22
2023-05-19T10:26:01.492Z,100739.34
2023-05-19T10:29:05.243Z,100745.59
2023-05-19T10:32:15.306Z,100746.50
2023-05-19T10:35:48.999Z,100741.25
2023-05-19T10:39:16.665Z,100745.25
2023-05-19T10:42:33.524Z,100751.06
2023-05-19T10:45:46.029Z,100745.06
2023-05-19T10:48:48.528Z,100743.41
2023-05-19T10:51:54.879Z,100736.16
2023-05-19T10:54:58.241Z,100730.88
2023-05-19T10:58:00.533Z,100728.37
2023-05-19T11:01:06.890Z,100722.19
2023-05-19T11:04:15.592Z,100720.50
2023-05-19T11:07:19.825Z,100725.37
2023-05-19T11:10:25.242Z,100726.31
2023-05-19T11:13:28.599Z,100716.19
2023-05-19T11:16:34.601Z,100710.59
2023-05-19T11:19:37.197Z,100703.41
2023-05-19T11:22:39.971Z,100710.34
2023-05-19T11:25:51.284Z,100719.13
2023-05-19T11:28:54.655Z,100711.16
2023-05-19T11:31:57.497Z,100716.31
2023-05-19T11:35:00.755Z,100707.91
2023-05-19T11:38:03.612Z,100711.81
2023-05-19T11:41:05.990Z,100716.34
2023-05-19T11:44:12.039Z,100712.63
2023-05-19T11:47:15.150Z,100705.72
2023-05-19T11:50:18.291Z,100709.28
2023-05-19T11:53:21.089Z,100703.88
2023-05-19T11:56:23.709Z,100712.78
2023-05-19T11:59:34.925Z,100709.25
2023-05-19T12:02:38.575Z,100707.47
2023-05-19T12:05:46.839Z,100704.47
2023-05-19T12:08:52.133Z,100705.47
2023-05-19T12:11:55.100Z,100702.13
2023-05-19T12:14:57.333Z,100691.47
2023-05-19T12:18:03.629Z,100679.00
2023-05-19T12:21:06.493Z,100691.44
2023-05-19T12:24:09.704Z,100679.03
2023-05-19T12:27:19.960Z,100680.78
2023-05-19T12:30:30.728Z,100673.69
2023-05-19T12:33:35.653Z,100670.13
2023-05-19T12:36:38.733Z,100655.00
2023-05-19T12:39:42.789Z,100648.78
2023-05-19T12:42:45.572Z,100647.88
2023-05-19T12:45:48.212Z,100648.78
2023-05-19T12:48:51.694Z,100655.00
2023-05-19T12:51:54.424Z,100649.66
2023-05-19T12:55:06.151Z,100639.88
2023-05-19T12:58:08.901Z,100639.88
2023-05-19T13:01:18.678Z,100639.81
2023-05-19T13:04:21.251Z,100634.53
2023-05-19T13:07:24.131Z,100638.09
2023-05-19T13:10:27.625Z,100639.00
2023-05-19T13:13:30.086Z,100632.75
2023-05-19T13:16:32.261Z,100626.56
2023-05-19T13:19:34.788Z,100631.88
2023-05-19T13:22:37.003Z,100628.31
2023-05-19T13:25:40.420Z,100628.31
2023-05-19T13:28:42.597Z,100630.00
2023-05-19T13:31:45.106Z,100627.31
2023-05-19T13:34:47.689Z,100607.88
2023-05-19T13:37:50.241Z,100607.84
2023-05-19T13:40:52.443Z,100606.97
2023-05-19T13:43:58.316Z,100596.31
2023-05-19T13:47:00.453Z,100594.50
2023-05-19T13:50:04.610Z,100596.13
2023-05-19T13:53:07.094Z,100596.16
2023-05-19T13:56:09.773Z,100589.16
2023-05-19T13:59:12.092Z,100597.22
2023-05-19T14:02:14.667Z,100590.94
2023-05-19T14:05:17.222Z,100595.16
2023-05-19T14:08:19.512Z,100592.34
2023-05-19T14:11:22.569Z,100585.19
2023-05-19T14:14:25.156Z,100586.91
2023-05-19T14:17:28.411Z,100590.56
2023-05-19T14:20:31.776Z,100591.62
2023-05-19T14:23:34.552Z,100585.44
2023-05-19T14:26:36.818Z,100584.66
2023-05-19T14:29:39.340Z,100583.78
2023-05-19T14:32:41.587Z,100589.09
2023-05-19T14:35:44.060Z,100577.53
2023-05-19T14:38:46.294Z,100585.53
2023-05-19T14:41:50.990Z,100571.34
2023-05-19T14:44:53.314Z,100571.38
2023-05-19T14:47:55.912Z,100566.94
2023-05-19T14:50:58.141Z,100574.94
2023-05-19T14:54:02.241Z,100568.66
2023-05-19T14:57:04.631Z,100574.72
2023-05-19T15:00:10.117Z,100568.63
2023-05-19T15:03:12.337Z,100571.28
2023-05-19T15:06:14.965Z,100571.19
2023-05-19T15:09:17.205Z,100576.41
